Recent forum postings ...
2021-04-13
Change wake turbulence after filing FP
2021-04-12
KLM-VA site "not responding", is my flight toast?
2021-04-10
Fly KLM Mon CTL
2021-04-09
SCHEDULE FLIGHT BOEING 737
2021-04-08
Law and rules in KLM VA
2021-04-04
Flying a Tour.


 
Aircraft IdentFlightrulesType of Flight
KLM869IN
NumberType of AircraftWake turbulenceEquipmentTransponder Type
1LJ45MSFGJRWS
Departure AerodromeDeparture Time
KLWS1635
Cruising speedFlight level
M077F290
Route
POTOR2 PUW V253 GEG/N0450F410 DCT EDGES DCT FARNS



Destination AerodromeTotal EETAlternative Aerodrome
CYYC0120CYEG
Other information
PBN/D2 DOF/210408 OPR/KLM VA FS PAX RMK/WILDWEST

Explanation of the IVAO flightplan

Lewiston-Nez Perce Co (KLWS), United States

METAR
KLWS 081456Z 30007KT 10SM SCT049 SCT055 BKN075 07/00 A3002 RMK AO2 SLP168 T00670000 53017

WINDWNW at 8 mph
VISIBILITY10 miles
CONDITIONS
CLOUDSmostly cloudy
TEMP45°F (7°C)
WIND CHILL41°F (5°C)
DEWPT32°F (0°C)
HUMIDITY61%
BAROMETER1017 hPa (30.02 in Hg)

Calgary Intl (CYYC), Canada

METAR
CYYC 081700Z 34023G31KT 8SM -SHSN SCT017 OVC035 01/M04 A2981 RMK CF3SC5 VIS NE-S 13 /CVCTV CLD EMBD SLP129

WINDNNW at 26 mph, gusting to 36 mph
VISIBILITY8 miles
CONDITIONSlight snow showers
CLOUDSovercast
TEMP34°F (1°C)
WIND CHILL21°F (-6°C)
DEWPT25°F (-4°C)
HUMIDITY70%
BAROMETER1009 hPa (29.81 in Hg)

Registration TimeGroundspeedAltitudeTransponderHeadingLongitudeLatitudeOn ground
16:12 08-04-20210 kts1442 ft200041-117.01446.3792Yes
16:150 kts1442 ft200041-117.01446.3792Yes
16:180 kts1442 ft200041-117.01446.3792Yes
16:2120 kts1442 ft126131-117.00946.3738Yes
16:24235 kts3933 ft126238-117.11346.3937No
16:27297 kts10798 ft12620-117.29246.4483No
16:30363 kts16300 ft126346-117.24746.7276No
16:33393 kts21707 ft126343-117.38247.0285No
16:36416 kts27104 ft126342-117.52947.3529No
16:39450 kts29002 ft12627-117.54547.6942No
16:42455 kts29000 ft12627-117.28248.0288No
16:45455 kts29000 ft12627-117.02448.3668No
16:48455 kts29000 ft12627-116.76348.7046No
16:51455 kts29000 ft12623-116.50849.045No
16:54453 kts29000 ft545158-116.19449.3482No
16:57454 kts29000 ft545156-115.70549.5521No
17:00422 kts28049 ft545152-115.23849.7732No
17:03369 kts21275 ft545147-114.85349.9859No
17:06339 kts16694 ft545141-114.53450.1946No
17:09286 kts11279 ft545135-114.28750.393No
17:12238 kts8999 ft545127-114.11150.5746No
17:15240 kts7871 ft54512-114.02250.7631No
17:18221 kts6284 ft5451360-114.02150.9526No
17:21140 kts3561 ft5451360-114.02151.1091Yes
17:2414 kts3561 ft545190-114.01251.1304Yes
17:270 kts3561 ft545190-114.01251.1305Yes
17:300 kts3561 ft545190-114.01251.1305Yes
17:330 kts3561 ft545190-114.01251.1305Yes